Time;durP1;ratioP1;P1;durP2;ratioP2;P2;SDS_P1;SDS_P2;PMS_P1;PMS_P2;Temp;Humidity;BMP_temperature;BMP_pressure;BME280_temperature;BME280_humidity;BME280_pressure;Samples;Min_cycle;Max_cycle;Signal;HPM_P1;HPM_P2
2021/12/12 00:00:29;;;;;;;22.08;10.45;;;8.90;99.90;;;;;;6154758;23;20024;-89
2021/12/12 00:02:59;;;;;;;21.45;11.23;;;6.50;99.90;;;;;;6154870;22;20070;-89
2021/12/12 00:05:32;;;;;;;26.15;11.63;;;6.00;99.90;;;;;;6154373;22;20363;-89
2021/12/12 00:07:59;;;;;;;22.45;11.30;;;7.90;99.90;;;;;;6147263;22;20021;-88
2021/12/12 00:10:29;;;;;;;25.25;11.80;;;6.60;99.90;;;;;;6253682;22;20081;-88
2021/12/12 00:13:00;;;;;;;18.23;9.90;;;8.20;99.90;;;;;;6149201;23;20029;-88
2021/12/12 00:15:26;;;;;;;22.42;10.18;;;7.10;99.90;;;;;;6149211;23;20017;-88
2021/12/12 00:17:53;;;;;;;21.52;11.52;;;6.60;99.90;;;;;;6150810;23;20399;-89
2021/12/12 00:20:24;;;;;;;24.67;11.82;;;8.70;99.90;;;;;;6148910;23;20025;-88
2021/12/12 00:22:52;;;;;;;35.95;13.43;;;6.40;99.90;;;;;;6149242;23;20456;-88
2021/12/12 00:25:19;;;;;;;21.42;12.25;;;9.30;99.90;;;;;;6149357;23;20014;-88
2021/12/12 00:27:44;;;;;;;28.65;12.02;;;8.90;99.90;;;;;;6149109;23;20052;-88
2021/12/12 00:30:13;;;;;;;24.35;12.30;;;6.60;99.90;;;;;;6149306;23;20018;-88
2021/12/12 00:32:40;;;;;;;20.52;11.60;;;7.40;99.90;;;;;;6149642;23;20024;-89
2021/12/12 00:35:11;;;;;;;21.02;10.95;;;9.30;99.90;;;;;;6149280;23;20069;-88
2021/12/12 00:37:38;;;;;;;23.20;11.07;;;9.20;99.90;;;;;;6149588;23;20018;-87
2021/12/12 00:40:24;;;;;;;33.00;11.00;;;9.20;99.90;;;;;;6149163;23;20025;-88
2021/12/12 00:42:54;;;;;;;22.90;11.35;;;7.10;99.90;;;;;;6148836;23;20014;-87
2021/12/12 00:45:23;;;;;;;31.15;11.18;;;8.10;99.90;;;;;;6149491;23;20478;-87
2021/12/12 00:47:49;;;;;;;25.83;11.10;;;8.90;99.90;;;;;;6149088;23;20088;-88
2021/12/12 00:50:25;;;;;;;22.48;10.50;;;7.70;99.90;;;;;;6253584;22;20017;-88
2021/12/12 00:52:54;;;;;;;19.50;11.43;;;6.90;99.90;;;;;;6149036;23;20021;-87
2021/12/12 00:55:23;;;;;;;29.92;11.70;;;9.40;99.90;;;;;;6149434;23;20028;-87
2021/12/12 00:57:53;;;;;;;23.65;11.10;;;6.70;99.90;;;;;;6149010;23;20020;-88
2021/12/12 01:00:22;;;;;;;28.52;11.50;;;7.20;99.90;;;;;;6149029;23;20036;-87
2021/12/12 01:02:48;;;;;;;22.08;10.77;;;9.80;99.90;;;;;;6148826;23;20383;-87
2021/12/12 01:05:15;;;;;;;27.77;10.75;;;7.30;99.90;;;;;;6149328;23;20833;-87
2021/12/12 01:07:44;;;;;;;28.10;11.23;;;7.10;99.90;;;;;;6151855;22;20590;-87
2021/12/12 01:10:20;;;;;;;28.42;11.50;;;9.00;99.90;;;;;;6154264;22;20092;-87
2021/12/12 01:12:46;;;;;;;;;;;7.60;99.90;;;;;;6129998;23;20017;-88
2021/12/12 01:15:20;;;;;;;28.25;10.68;;;7.50;99.90;;;;;;6129262;23;19981;-87
2021/12/12 01:17:49;;;;;;;22.88;10.68;;;9.80;99.90;;;;;;6154005;23;20094;-87
2021/12/12 01:20:40;;;;;;;31.00;10.75;;;7.60;99.90;;;;;;6154102;23;20017;-88
2021/12/12 01:23:15;;;;;;;19.80;10.00;;;7.00;99.90;;;;;;6153675;23;20020;-88
2021/12/12 01:25:44;;;;;;;25.17;10.65;;;7.80;99.90;;;;;;6129299;23;20055;-87
2021/12/12 01:28:19;;;;;;;25.65;11.52;;;9.70;99.90;;;;;;6153698;22;20339;-88
2021/12/12 01:30:51;;;;;;;22.98;8.90;;;7.60;99.90;;;;;;6153994;23;20061;-88
2021/12/12 01:33:32;;;;;;;23.52;10.00;;;8.20;99.90;;;;;;6154958;23;20021;-88
2021/12/12 01:36:05;;;;;;;26.88;10.52;;;8.40;99.90;;;;;;6260124;22;20021;-88
2021/12/12 01:38:55;;;;;;;24.55;10.55;;;7.30;99.90;;;;;;6154815;23;20017;-89
2021/12/12 01:41:32;;;;;;;19.10;9.68;;;8.00;99.90;;;;;;6154985;22;20046;-89
2021/12/12 01:44:04;;;;;;;19.15;9.82;;;7.30;99.90;;;;;;6259638;22;20020;-88
2021/12/12 01:46:37;;;;;;;27.73;10.23;;;7.90;99.90;;;;;;6179973;23;20415;-88
2021/12/12 01:49:10;;;;;;;23.63;10.32;;;8.40;99.90;;;;;;6155238;23;20049;-87
2021/12/12 01:51:38;;;;;;;20.38;10.18;;;8.40;99.90;;;;;;6154821;23;20443;-87
2021/12/12 01:54:07;;;;;;;24.13;11.98;;;9.90;99.90;;;;;;6155445;23;20079;-89
2021/12/12 01:56:42;;;;;;;25.52;10.45;;;9.50;99.90;;;;;;6155077;22;20343;-87
2021/12/12 01:59:09;;;;;;;26.70;10.25;;;9.10;99.90;;;;;;6155271;23;20082;-88
2021/12/12 02:01:43;;;;;;;23.85;11.52;;;9.60;99.90;;;;;;6154929;23;20394;-88
2021/12/12 02:04:13;;;;;;;15.75;9.43;;;8.00;99.90;;;;;;6155205;23;20013;-88
2021/12/12 02:06:44;;;;;;;23.15;10.95;;;7.90;99.90;;;;;;6154861;23;20451;-88
2021/12/12 02:09:10;;;;;;;19.98;11.23;;;10.00;99.90;;;;;;6155063;23;20059;-88
2021/12/12 02:11:37;;;;;;;27.77;11.43;;;8.00;99.90;;;;;;6155195;22;20045;-87
2021/12/12 02:14:11;;;;;;;26.60;12.50;;;7.70;99.90;;;;;;6155054;22;20165;-86
2021/12/12 02:16:41;;;;;;;22.95;12.57;;;9.90;99.90;;;;;;6259675;22;20057;-90
2021/12/12 02:19:11;;;;;;;21.35;10.45;;;9.90;99.90;;;;;;6154951;23;20017;-89
2021/12/12 02:21:59;;;;;;;21.55;12.05;;;9.50;99.90;;;;;;6154546;23;20028;-88
2021/12/12 02:35:32;;;;;;;23.42;11.30;;;7.40;99.90;;;;;;6155080;23;20021;-87
2021/12/12 02:37:59;;;;;;;26.67;10.88;;;8.50;99.90;;;;;;6155130;22;20021;-88
2021/12/12 02:40:29;;;;;;;21.73;10.65;;;9.80;99.90;;;;;;6155114;23;20024;-88
2021/12/12 02:42:55;;;;;;;20.25;10.60;;;9.40;99.90;;;;;;6154796;23;20017;-86
2021/12/12 02:45:23;;;;;;;20.65;9.75;;;8.50;99.90;;;;;;6154929;23;20028;-86
2021/12/12 02:47:56;;;;;;;18.30;11.05;;;6.20;99.90;;;;;;6154786;23;20032;-87
2021/12/12 02:50:27;;;;;;;22.10;10.93;;;8.70;99.90;;;;;;6154922;22;20019;-87
2021/12/12 02:53:00;;;;;;;17.50;9.75;;;6.90;99.90;;;;;;6154903;22;20028;-89
2021/12/12 02:55:30;;;;;;;22.20;10.80;;;9.60;99.90;;;;;;6154743;23;20025;-87
2021/12/12 02:57:58;;;;;;;20.10;10.55;;;7.90;99.90;;;;;;6155156;23;20049;-87
2021/12/12 03:00:29;;;;;;;20.35;12.13;;;7.20;99.90;;;;;;6155052;23;20053;-87
2021/12/12 03:02:58;;;;;;;17.13;9.95;;;8.30;99.90;;;;;;6154701;23;20292;-87
2021/12/12 03:05:32;;;;;;;15.10;9.75;;;8.80;99.90;;;;;;6154824;22;20382;-87
2021/12/12 03:11:14;;;;;;;23.63;10.80;;;7.60;99.90;;;;;;6180704;22;20028;-90
2021/12/12 03:13:41;;;;;;;20.17;10.55;;;7.80;99.90;;;;;;6155160;23;20029;-89
2021/12/12 03:16:13;;;;;;;19.35;10.00;;;7.50;99.90;;;;;;6154962;23;20024;-89
2021/12/12 03:18:43;;;;;;;22.13;12.07;;;7.70;99.90;;;;;;6154881;23;20108;-89
2021/12/12 03:21:29;;;;;;;21.65;11.73;;;8.30;99.90;;;;;;6154961;22;20024;-89
2021/12/12 03:23:57;;;;;;;15.30;11.02;;;7.40;99.90;;;;;;6154850;23;20017;-88
2021/12/12 03:26:29;;;;;;;17.40;10.75;;;7.00;99.90;;;;;;6155074;23;20029;-91
2021/12/12 03:29:10;;;;;;;18.30;10.25;;;9.30;99.90;;;;;;6155639;22;20021;-90
2021/12/12 03:31:43;;;;;;;21.58;12.90;;;8.70;99.90;;;;;;6155371;23;20024;-89
2021/12/12 03:34:12;;;;;;;192.48;22.27;;;7.20;99.90;;;;;;6155035;23;20088;-87
2021/12/12 03:36:42;;;;;;;22.05;13.30;;;9.00;99.90;;;;;;6155628;23;20032;-89
2021/12/12 03:39:13;;;;;;;27.50;14.00;;;6.90;99.90;;;;;;6154999;23;20017;-89
2021/12/12 03:41:42;;;;;;;17.40;12.35;;;7.70;99.90;;;;;;6155268;22;20032;-88
2021/12/12 03:44:13;;;;;;;18.52;12.57;;;8.20;99.90;;;;;;6155032;23;20049;-88
2021/12/12 03:46:46;;;;;;;12.75;8.98;;;8.30;99.90;;;;;;6154588;23;20100;-90
2021/12/12 03:49:12;;;;;;;16.55;11.38;;;9.70;99.90;;;;;;6154947;23;20339;-89
2021/12/12 03:51:41;;;;;;;20.42;13.45;;;7.70;99.90;;;;;;6154454;23;20017;-89
2021/12/12 03:54:07;;;;;;;18.60;10.70;;;6.90;99.90;;;;;;6154962;23;20017;-88
2021/12/12 03:56:34;;;;;;;17.65;10.77;;;8.30;99.90;;;;;;6154516;22;20522;-88
2021/12/12 03:59:00;;;;;;;13.13;10.40;;;9.00;99.90;;;;;;6154849;22;20013;-88
2021/12/12 04:01:30;;;;;;;14.50;9.73;;;10.00;99.90;;;;;;6154672;22;20082;-89
2021/12/12 04:04:03;;;;;;;13.73;10.40;;;5.40;99.90;;;;;;6154800;23;20066;-89
2021/12/12 04:06:30;;;;;;;19.13;10.35;;;8.40;99.90;;;;;;6154771;23;20045;-87
2021/12/12 04:09:22;;;;;;;13.30;9.80;;;9.20;99.90;;;;;;6154337;22;20021;-89
2021/12/12 04:11:53;;;;;;;18.10;11.65;;;8.40;99.90;;;;;;6124803;23;20330;-90
2021/12/12 04:14:19;;;;;;;18.40;12.73;;;9.00;99.90;;;;;;6125135;23;20064;-87
2021/12/12 04:16:51;;;;;;;16.55;10.70;;;8.20;99.90;;;;;;6124913;23;20025;-88
2021/12/12 04:19:20;;;;;;;14.55;10.85;;;7.30;99.90;;;;;;6124941;23;20033;-89
2021/12/12 04:21:49;;;;;;;18.33;11.90;;;7.40;99.90;;;;;;6125425;23;20346;-88
2021/12/12 04:24:25;;;;;;;18.05;11.68;;;9.60;99.90;;;;;;6124853;23;20024;-87
2021/12/12 04:26:50;;;;;;;;;;;8.90;99.90;;;;;;6125967;23;20347;-87
2021/12/12 04:29:25;;;;;;;15.60;11.07;;;8.00;99.90;;;;;;6125061;23;19916;-87
2021/12/12 04:31:56;;;;;;;22.52;13.18;;;9.70;99.90;;;;;;6125396;23;20440;-89
2021/12/12 04:34:26;;;;;;;13.32;10.18;;;7.30;99.90;;;;;;6125207;23;20021;-90
2021/12/12 04:36:54;;;;;;;20.17;10.93;;;7.90;99.90;;;;;;6149869;23;20053;-88
2021/12/12 04:39:25;;;;;;;14.65;9.68;;;9.30;99.90;;;;;;6124718;23;20075;-88
2021/12/12 04:41:54;;;;;;;15.75;10.07;;;5.80;99.90;;;;;;6124896;23;20056;-87
2021/12/12 04:44:22;;;;;;;16.98;11.10;;;7.10;99.90;;;;;;6124670;23;20339;-88
2021/12/12 04:49:55;;;;;;;17.02;10.73;;;6.40;99.90;;;;;;6124975;23;20026;-89
2021/12/12 04:52:40;;;;;;;15.52;9.75;;;9.80;99.90;;;;;;6125062;23;20470;-89
2021/12/12 04:55:24;;;;;;;13.10;9.15;;;7.80;99.90;;;;;;6100231;23;20017;-89
2021/12/12 04:57:56;;;;;;;14.52;10.70;;;8.10;99.90;;;;;;6100860;23;20045;-90
2021/12/12 05:00:29;;;;;;;14.02;10.52;;;6.30;99.90;;;;;;6125031;23;20025;-89
2021/12/12 05:03:06;;;;;;;15.43;9.68;;;9.90;99.90;;;;;;6124831;23;20340;-88
2021/12/12 05:05:39;;;;;;;14.35;11.27;;;6.30;99.90;;;;;;6124479;23;20359;-87
2021/12/12 05:08:15;;;;;;;12.27;9.45;;;6.80;99.90;;;;;;6126083;23;20084;-88
2021/12/12 05:10:46;;;;;;;12.65;9.68;;;7.70;99.90;;;;;;6136315;23;20482;-88
2021/12/12 05:13:19;;;;;;;12.93;9.63;;;8.60;99.90;;;;;;6150259;23;20021;-89
2021/12/12 05:15:51;;;;;;;16.35;9.10;;;8.10;99.90;;;;;;6150865;23;20111;-88
2021/12/12 05:18:20;;;;;;;14.80;8.90;;;7.00;99.90;;;;;;6150712;23;20013;-88
2021/12/12 05:20:54;;;;;;;11.10;9.07;;;8.70;99.90;;;;;;6150225;23;20075;-89
2021/12/12 05:23:24;;;;;;;13.65;9.10;;;8.10;99.90;;;;;;6150137;23;20080;-89
2021/12/12 05:25:56;;;;;;;16.73;10.40;;;8.30;99.90;;;;;;6150452;23;20070;-90
2021/12/12 05:28:30;;;;;;;14.27;9.40;;;8.20;99.90;;;;;;6150772;23;20014;-90
2021/12/12 05:31:00;;;;;;;15.57;11.55;;;8.10;99.90;;;;;;6150120;23;20017;-89
2021/12/12 05:33:29;;;;;;;21.88;12.93;;;6.60;99.90;;;;;;6150798;23;20045;-90
2021/12/12 05:35:55;;;;;;;14.80;9.48;;;8.00;99.90;;;;;;6150523;23;20079;-88
2021/12/12 05:38:22;;;;;;;16.67;11.60;;;7.00;99.90;;;;;;6150450;23;20018;-89
2021/12/12 05:40:55;;;;;;;19.30;12.77;;;10.40;99.90;;;;;;6150782;23;20028;-91
2021/12/12 05:43:55;;;;;;;15.27;11.02;;;7.30;99.90;;;;;;6150900;23;20020;-91
2021/12/12 05:46:24;;;;;;;17.75;11.02;;;9.70;99.90;;;;;;6146653;23;20025;-90
2021/12/12 05:48:53;;;;;;;17.08;11.70;;;8.80;99.90;;;;;;6151013;23;20347;-90
2021/12/12 05:51:20;;;;;;;15.57;10.98;;;9.20;99.90;;;;;;6126528;23;20455;-89
2021/12/12 05:53:50;;;;;;;15.75;11.63;;;7.20;99.90;;;;;;6150941;23;20024;-90
2021/12/12 05:56:20;;;;;;;20.02;13.50;;;7.30;99.90;;;;;;6150976;23;20352;-89
2021/12/12 05:58:47;;;;;;;16.77;11.82;;;8.70;99.90;;;;;;6150540;23;20017;-88
2021/12/12 06:01:13;;;;;;;15.13;9.93;;;7.40;99.90;;;;;;6151449;23;20036;-90
2021/12/12 06:03:41;;;;;;;17.60;11.50;;;8.60;99.90;;;;;;6150281;23;20017;-90
2021/12/12 06:06:11;;;;;;;14.20;9.40;;;8.90;99.90;;;;;;6150503;23;20447;-89
2021/12/12 06:08:38;;;;;;;14.25;10.93;;;8.80;99.90;;;;;;6150176;23;20018;-88
2021/12/12 06:11:06;;;;;;;14.13;11.25;;;8.90;99.90;;;;;;6148917;23;20033;-88
2021/12/12 06:13:38;;;;;;;16.60;12.18;;;9.10;99.90;;;;;;6150497;23;20352;-88
2021/12/12 06:16:08;;;;;;;19.20;13.15;;;7.20;99.90;;;;;;6150675;23;20021;-89
2021/12/12 06:18:36;;;;;;;17.17;11.88;;;8.40;99.90;;;;;;6150261;23;20017;-88
2021/12/12 06:21:03;;;;;;;16.08;11.00;;;8.70;99.90;;;;;;6149982;23;20020;-89
2021/12/12 06:23:29;;;;;;;12.30;9.65;;;9.00;99.90;;;;;;6150042;23;20519;-90
2021/12/12 06:25:56;;;;;;;14.32;9.43;;;7.50;99.90;;;;;;6150696;23;20029;-89
2021/12/12 06:28:28;;;;;;;18.80;11.57;;;9.60;99.90;;;;;;6150164;23;20017;-90
2021/12/12 06:30:55;;;;;;;20.63;11.35;;;8.30;99.90;;;;;;6150374;23;20388;-89
2021/12/12 06:33:21;;;;;;;14.50;11.73;;;7.20;99.90;;;;;;6149968;23;20455;-89
2021/12/12 06:35:48;;;;;;;16.23;9.80;;;7.90;99.90;;;;;;6150058;23;20021;-89
2021/12/12 06:38:16;;;;;;;24.70;11.75;;;9.30;99.90;;;;;;6150353;23;20024;-89
2021/12/12 06:40:43;;;;;;;20.67;12.85;;;9.00;99.90;;;;;;6150172;23;20443;-89
2021/12/12 06:43:12;;;;;;;21.23;11.48;;;9.60;99.90;;;;;;6149820;23;20028;-87
2021/12/12 06:45:39;;;;;;;22.88;14.23;;;7.20;99.90;;;;;;6149882;23;20022;-88
2021/12/12 06:48:09;;;;;;;22.15;14.55;;;9.80;99.90;;;;;;6150147;23;20021;-87
2021/12/12 06:51:26;;;;;;;17.45;11.07;;;7.20;99.90;;;;;;6150061;23;20067;-87
2021/12/12 06:53:52;;;;;;;20.95;12.63;;;9.40;99.90;;;;;;6125635;23;20456;-87
2021/12/12 06:56:19;;;;;;;24.25;12.77;;;7.90;99.90;;;;;;6174734;23;20096;-87
2021/12/12 06:58:48;;;;;;;17.40;10.70;;;9.00;99.90;;;;;;6150008;23;20078;-87
2021/12/12 07:01:20;;;;;;;23.65;14.43;;;9.50;99.90;;;;;;6150590;23;20419;-87
2021/12/12 07:03:51;;;;;;;26.80;14.45;;;11.10;99.90;;;;;;6150001;23;20333;-87
2021/12/12 07:06:20;;;;;;;27.75;13.70;;;9.60;99.90;;;;;;6150390;23;20022;-87
2021/12/12 07:08:47;;;;;;;46.30;20.42;;;7.30;99.90;;;;;;6150758;23;20026;-86
2021/12/12 07:11:18;;;;;;;18.80;12.02;;;7.70;99.90;;;;;;6149744;23;20576;-87
2021/12/12 07:13:46;;;;;;;33.28;17.08;;;10.40;99.90;;;;;;6174991;23;20074;-87
2021/12/12 07:16:12;;;;;;;26.17;13.63;;;7.80;99.90;;;;;;6149559;23;20073;-87
2021/12/12 07:18:39;;;;;;;26.33;14.38;;;7.70;99.90;;;;;;6254322;22;20100;-88
2021/12/12 07:21:09;;;;;;;32.35;15.40;;;9.90;99.90;;;;;;6253961;22;20544;-87
2021/12/12 07:23:35;;;;;;;32.58;16.33;;;9.60;99.90;;;;;;6149703;23;20014;-87
2021/12/12 07:26:04;;;;;;;38.33;17.35;;;8.00;99.90;;;;;;6150125;23;20022;-87
2021/12/12 07:28:31;;;;;;;43.22;17.30;;;9.90;99.90;;;;;;6149744;23;20067;-88
2021/12/12 07:31:05;;;;;;;45.50;16.45;;;7.60;99.90;;;;;;6149509;23;20081;-86
2021/12/12 07:33:34;;;;;;;25.52;13.30;;;9.60;99.90;;;;;;6149932;23;20018;-87
2021/12/12 07:36:08;;;;;;;32.40;14.02;;;9.00;99.90;;;;;;6149804;23;20067;-86
2021/12/12 07:38:35;;;;;;;26.23;14.18;;;10.60;99.90;;;;;;6150167;23;20092;-87
2021/12/12 07:41:05;;;;;;;35.10;16.73;;;10.10;99.90;;;;;;6149874;23;20017;-87
2021/12/12 07:43:33;;;;;;;27.23;13.27;;;9.40;99.90;;;;;;6149613;23;20455;-86
2021/12/12 07:46:00;;;;;;;37.20;15.65;;;8.20;99.90;;;;;;6149777;23;20067;-87
2021/12/12 07:48:26;;;;;;;21.60;11.50;;;10.70;99.90;;;;;;6253776;22;20018;-87
2021/12/12 07:50:53;;;;;;;28.55;11.82;;;9.60;99.90;;;;;;6150003;23;20097;-86
2021/12/12 07:53:19;;;;;;;29.95;12.85;;;10.00;99.90;;;;;;6149931;23;20021;-86
2021/12/12 07:55:55;;;;;;;20.25;11.57;;;8.30;99.90;;;;;;6150615;23;20009;-86
2021/12/12 07:58:22;;;;;;;;;;;10.30;99.90;;;;;;6175249;23;20014;-87
2021/12/12 08:00:49;;;;;;;;;;;12.50;99.90;;;;;;6125522;23;19952;-87
2021/12/12 08:03:16;;;;;;;23.88;10.63;;;8.90;99.90;;;;;;6149516;23;20297;-87
2021/12/12 08:05:42;;;;;;;22.80;10.20;;;10.10;99.90;;;;;;6149431;23;20061;-87
2021/12/12 08:08:11;;;;;;;21.98;8.52;;;11.80;99.90;;;;;;6253812;22;20052;-86
2021/12/12 08:10:40;;;;;;;27.92;9.38;;;11.70;99.90;;;;;;6153402;22;20029;-85
2021/12/12 08:13:06;;;;;;;25.80;9.90;;;11.40;99.90;;;;;;6154517;22;20021;-87
2021/12/12 08:15:32;;;;;;;22.45;8.63;;;8.90;99.90;;;;;;6130046;23;20091;-86
2021/12/12 08:18:00;;;;;;;19.90;7.95;;;9.00;99.90;;;;;;6258651;22;20017;-87
2021/12/12 08:20:29;;;;;;;23.17;7.88;;;11.00;99.90;;;;;;6154411;23;20032;-86
2021/12/12 08:22:56;;;;;;;18.70;6.88;;;12.50;99.90;;;;;;6258199;22;20320;-87
2021/12/12 08:25:22;;;;;;;13.80;6.68;;;10.00;99.90;;;;;;6154251;23;20017;-87
2021/12/12 08:27:48;;;;;;;20.60;7.45;;;12.40;99.90;;;;;;6154212;23;20017;-88
2021/12/12 08:30:17;;;;;;;13.05;6.53;;;8.70;99.90;;;;;;6258470;22;20017;-87
2021/12/12 08:32:47;;;;;;;19.52;7.18;;;11.40;99.90;;;;;;6154622;23;20110;-88
2021/12/12 08:35:16;;;;;;;16.00;6.38;;;10.00;99.90;;;;;;6154403;23;20108;-87
2021/12/12 08:37:46;;;;;;;14.07;6.68;;;11.00;99.90;;;;;;6258667;22;20443;-88
2021/12/12 08:40:18;;;;;;;14.00;7.15;;;10.80;99.90;;;;;;6153996;23;20021;-88
2021/12/12 08:42:48;;;;;;;12.65;6.07;;;9.90;99.90;;;;;;6153381;23;20021;-88
2021/12/12 08:45:18;;;;;;;14.13;7.47;;;10.40;99.90;;;;;;6154588;23;20062;-88
2021/12/12 08:47:58;;;;;;;18.10;7.85;;;11.60;99.90;;;;;;6154956;23;20439;-91
2021/12/12 08:50:31;;;;;;;18.60;7.85;;;11.60;99.90;;;;;;6153891;23;20020;-88
2021/12/12 08:52:59;;;;;;;14.45;7.10;;;9.50;99.90;;;;;;6258766;22;20017;-86
2021/12/12 08:55:33;;;;;;;15.27;6.18;;;9.30;99.90;;;;;;6129435;23;20023;-87
2021/12/12 08:58:13;;;;;;;13.73;6.35;;;12.10;99.90;;;;;;6153907;23;20023;-86
2021/12/12 09:00:52;;;;;;;20.33;8.98;;;10.20;99.90;;;;;;6153707;23;20443;-87
2021/12/12 09:03:33;;;;;;;33.90;8.70;;;9.20;99.90;;;;;;6153884;23;20021;-90
2021/12/12 09:06:27;;;;;;;23.30;6.88;;;9.10;99.90;;;;;;6259385;22;20017;-92
2021/12/12 09:09:06;;;;;;;26.15;8.68;;;10.80;99.90;;;;;;6154094;22;20017;-87
2021/12/12 09:12:05;;;;;;;19.25;7.45;;;9.10;99.90;;;;;;6151970;22;20073;-89
2021/12/12 09:14:42;;;;;;;85.57;12.13;;;9.20;99.90;;;;;;6124789;23;20333;-87
2021/12/12 09:17:11;;;;;;;26.23;6.68;;;10.40;99.90;;;;;;6124776;23;20359;-86
2021/12/12 09:19:42;;;;;;;30.35;9.35;;;12.60;99.90;;;;;;6124332;23;20082;-87
2021/12/12 09:22:15;;;;;;;21.33;8.18;;;8.70;99.90;;;;;;6124258;23;20020;-87
2021/12/12 09:24:56;;;;;;;22.63;8.23;;;10.60;99.90;;;;;;6100010;23;20057;-86
2021/12/12 09:27:28;;;;;;;28.52;9.88;;;12.40;99.90;;;;;;6124714;23;20020;-86
2021/12/12 09:29:59;;;;;;;14.63;7.20;;;11.40;99.90;;;;;;6124708;23;20409;-86
2021/12/12 09:32:33;;;;;;;17.45;6.97;;;11.40;99.90;;;;;;6124766;23;20013;-86
2021/12/12 09:35:08;;;;;;;14.63;6.13;;;11.20;99.90;;;;;;6124220;23;20024;-86
2021/12/12 09:37:40;;;;;;;19.77;7.83;;;8.50;99.90;;;;;;6124552;23;20078;-86
2021/12/12 09:40:13;;;;;;;16.85;7.18;;;10.30;99.90;;;;;;6124440;23;20477;-86
2021/12/12 09:42:53;;;;;;;11.85;5.80;;;9.80;99.90;;;;;;6100137;23;20014;-86
2021/12/12 09:45:38;;;;;;;15.57;6.80;;;11.20;99.90;;;;;;6124798;23;20025;-88
2021/12/12 10:03:30;;;;;;;16.25;7.30;;;11.60;99.90;;;;;;6180523;23;20397;-88
2021/12/12 10:06:07;;;;;;;18.10;6.25;;;10.00;99.90;;;;;;6155189;23;20717;-88
2021/12/12 10:09:04;;;;;;;14.98;6.50;;;9.10;99.90;;;;;;6155748;23;20021;-88
2021/12/12 10:11:43;;;;;;;14.82;4.85;;;9.20;99.90;;;;;;6155464;23;20199;-87
2021/12/12 10:14:38;;;;;;;17.25;6.90;;;10.10;99.90;;;;;;6155515;23;20017;-87
2021/12/12 10:17:09;;;;;;;8.52;5.45;;;8.20;99.90;;;;;;6154750;23;20024;-87
2021/12/12 10:19:41;;;;;;;16.92;6.35;;;9.70;99.90;;;;;;6155270;23;20013;-87
2021/12/12 10:22:22;;;;;;;10.20;5.40;;;12.10;99.90;;;;;;6154856;23;20013;-87
2021/12/12 10:25:02;;;;;;;8.48;4.90;;;11.30;99.90;;;;;;6180487;22;20020;-88
2021/12/12 10:27:50;;;;;;;6.88;4.53;;;11.40;99.90;;;;;;6155312;23;20100;-87
2021/12/12 10:30:27;;;;;;;14.73;5.72;;;13.50;99.90;;;;;;6180680;23;20025;-86
2021/12/12 10:33:06;;;;;;;13.25;5.22;;;9.40;99.90;;;;;;6180672;23;20450;-87
2021/12/12 10:35:40;;;;;;;25.48;5.55;;;9.70;99.90;;;;;;6180299;23;20359;-88
2021/12/12 10:38:21;;;;;;;19.65;5.78;;;9.20;99.90;;;;;;6155736;23;20078;-88
2021/12/12 10:41:01;;;;;;;18.23;5.07;;;11.90;99.90;;;;;;6155979;23;20017;-88
2021/12/12 10:43:55;;;;;;;27.83;6.70;;;10.90;99.90;;;;;;6155549;23;20044;-89
2021/12/12 10:46:32;;;;;;;92.45;9.88;;;9.50;99.90;;;;;;6155719;23;20096;-91
2021/12/12 10:49:26;;;;;;;23.80;5.72;;;13.70;99.90;;;;;;6155193;23;20075;-89
2021/12/12 10:52:21;;;;;;;32.00;7.03;;;12.70;99.90;;;;;;6155577;23;20017;-92
2021/12/12 10:54:55;;;;;;;19.40;6.78;;;9.00;99.90;;;;;;6179796;23;20021;-87
2021/12/12 10:57:32;;;;;;;16.70;5.28;;;10.20;99.90;;;;;;6155659;23;20466;-87
2021/12/12 11:00:13;;;;;;;21.80;5.80;;;8.90;99.90;;;;;;6180587;23;20024;-85
2021/12/12 11:02:49;;;;;;;26.67;6.80;;;9.70;99.90;;;;;;6155180;23;20013;-86
2021/12/12 11:05:21;;;;;;;14.93;4.72;;;11.40;99.90;;;;;;6181791;23;20096;-85
2021/12/12 11:07:53;;;;;;;10.07;4.65;;;9.20;99.90;;;;;;6180144;23;20096;-83
2021/12/12 11:10:28;;;;;;;17.58;5.43;;;12.50;99.90;;;;;;6180298;23;20024;-86
2021/12/12 11:13:24;;;;;;;19.83;5.60;;;9.90;99.90;;;;;;6155226;23;20017;-87
2021/12/12 11:16:09;;;;;;;13.82;4.68;;;9.80;99.90;;;;;;6180815;22;20099;-87
2021/12/12 11:18:58;;;;;;;21.77;6.05;;;10.00;99.90;;;;;;6181716;23;20049;-83
2021/12/12 11:21:33;;;;;;;31.60;6.43;;;10.60;99.90;;;;;;6179900;23;20032;-86
2021/12/12 11:24:07;;;;;;;24.25;5.80;;;11.40;99.90;;;;;;6180048;23;20014;-85
2021/12/12 11:26:40;;;;;;;41.20;7.05;;;12.00;99.90;;;;;;6180045;23;20045;-86
2021/12/12 11:29:14;;;;;;;28.20;6.35;;;12.60;99.90;;;;;;6155218;23;20070;-86
2021/12/12 11:31:47;;;;;;;48.28;6.70;;;12.10;99.90;;;;;;6180004;22;20024;-86
2021/12/12 11:34:14;;;;;;;33.30;6.40;;;9.70;99.90;;;;;;6155179;23;20028;-87
2021/12/12 11:36:57;;;;;;;124.80;12.40;;;12.00;99.90;;;;;;6155195;23;20025;-87
2021/12/12 11:39:34;;;;;;;53.75;8.02;;;12.50;99.90;;;;;;6180330;23;20025;-87
2021/12/12 11:42:05;;;;;;;26.38;6.35;;;9.40;99.90;;;;;;6155067;23;20020;-88
2021/12/12 11:44:35;;;;;;;15.30;5.10;;;12.40;99.90;;;;;;6155441;23;20066;-88
2021/12/12 11:47:25;;;;;;;20.58;5.43;;;11.00;99.90;;;;;;6179945;22;20748;-87
2021/12/12 11:50:00;;;;;;;16.33;4.75;;;12.90;99.90;;;;;;6180358;23;20025;-86
2021/12/12 11:52:39;;;;;;;18.80;4.38;;;10.60;99.90;;;;;;6179798;23;20078;-86
2021/12/12 11:55:39;;;;;;;18.55;4.68;;;13.70;99.90;;;;;;6155007;23;20074;-92
2021/12/12 11:58:34;;;;;;;21.13;4.55;;;13.00;99.90;;;;;;6155619;23;20409;-88
2021/12/12 12:01:17;;;;;;;13.95;4.90;;;10.80;99.90;;;;;;6155494;23;20450;-87
2021/12/12 12:04:09;;;;;;;25.10;5.55;;;11.70;99.90;;;;;;6155164;23;20406;-85
2021/12/12 12:07:04;;;;;;;81.03;10.52;;;10.50;99.90;;;;;;6179763;23;20017;-87
2021/12/12 12:09:39;;;;;;;69.70;10.02;;;12.70;99.90;;;;;;6180384;23;20056;-92
2021/12/12 12:12:18;;;;;;;16.17;5.15;;;12.50;99.90;;;;;;6286976;22;20431;-95
2021/12/12 12:14:59;;;;;;;14.32;5.80;;;10.20;99.90;;;;;;6156526;23;20017;-78
2021/12/12 12:17:46;;;;;;;17.95;5.03;;;11.80;99.90;;;;;;6179469;23;20073;-88
2021/12/12 12:20:25;;;;;;;20.65;5.55;;;10.40;99.90;;;;;;6180180;23;20109;-87
2021/12/12 12:23:02;;;;;;;13.30;4.88;;;11.80;99.90;;;;;;6155252;23;20159;-88
2021/12/12 12:28:47;;;;;;;34.47;7.47;;;13.30;99.90;;;;;;6179504;23;20023;-86
2021/12/12 12:31:33;;;;;;;;;;;13.20;99.90;;;;;;6180668;23;20043;-87
2021/12/12 12:34:22;;;;;;;34.10;6.60;;;10.80;99.90;;;;;;6154979;23;19955;-87
2021/12/12 12:37:29;;;;;;;57.47;7.20;;;12.30;99.90;;;;;;6155189;23;20021;-85
2021/12/12 12:40:21;;;;;;;104.85;7.25;;;13.10;99.90;;;;;;6179592;23;20351;-84
2021/12/12 12:43:24;;;;;;;101.18;8.30;;;10.10;99.90;;;;;;6179342;23;20032;-85
2021/12/12 12:46:08;;;;;;;123.53;10.90;;;12.10;99.90;;;;;;6311176;22;20070;-85
2021/12/12 12:49:06;;;;;;;67.22;7.88;;;11.30;99.90;;;;;;6284992;22;20049;-85
2021/12/12 12:52:08;;;;;;;108.53;9.02;;;10.10;99.90;;;;;;6179253;23;20043;-86
2021/12/12 12:54:43;;;;;;;119.38;8.93;;;12.30;99.90;;;;;;6179538;23;20022;-86
2021/12/12 12:57:19;;;;;;;90.93;8.02;;;9.90;99.90;;;;;;6154728;23;20021;-86
2021/12/12 12:59:51;;;;;;;184.05;10.45;;;12.80;99.90;;;;;;6179321;23;20017;-84
2021/12/12 13:02:26;;;;;;;202.52;12.15;;;12.80;99.90;;;;;;6174490;23;20074;-88
2021/12/12 13:05:53;;;;;;;;;;;;;;;;;;;;;
2021/12/12 13:08:49;;;;;;;90.70;9.45;;;10.10;99.90;;;;;;6181426;23;20306;-91
2021/12/12 13:11:21;;;;;;;75.60;10.07;;;12.90;99.90;;;;;;6156413;23;20032;-93
2021/12/12 13:14:28;;;;;;;119.75;11.80;;;12.80;99.90;;;;;;6155836;23;20013;-93
2021/12/12 13:17:41;;;;;;;136.50;11.60;;;9.90;99.90;;;;;;6157322;23;20381;-90
2021/12/12 13:20:29;;;;;;;184.93;14.75;;;12.60;99.90;;;;;;6155366;23;20104;-95
2021/12/12 13:23:38;;;;;;;84.68;11.25;;;9.70;99.90;;;;;;6157362;23;20014;-92
2021/12/12 13:46:21;;;;;;;39.13;8.55;;;9.80;99.90;;;;;;6180864;23;20447;-86
2021/12/12 13:49:17;;;;;;;29.90;9.70;;;10.70;99.90;;;;;;6155650;23;20385;-88
2021/12/12 13:52:10;;;;;;;32.72;9.00;;;9.90;99.90;;;;;;6180726;23;20343;-88
2021/12/12 13:55:38;;;;;;;27.35;8.88;;;12.60;99.90;;;;;;6157103;23;20017;-92
2021/12/12 13:59:03;;;;;;;21.23;7.70;;;12.90;99.90;;;;;;6110434;23;20021;-91
2021/12/12 14:01:53;;;;;;;25.48;8.60;;;9.00;99.90;;;;;;6157287;23;20041;-92
2021/12/12 14:05:20;;;;;;;31.73;8.38;;;10.00;99.90;;;;;;6156972;23;20023;-94
2021/12/12 14:07:56;;;;;;;25.38;8.90;;;11.00;99.90;;;;;;6175933;23;20025;-92
2021/12/12 14:11:08;;;;;;;27.85;9.15;;;13.20;99.90;;;;;;6157044;23;20117;-93
2021/12/12 14:17:29;;;;;;;33.45;10.02;;;9.50;99.90;;;;;;6182852;23;20234;-92
2021/12/12 14:20:05;;;;;;;55.55;10.00;;;10.80;99.90;;;;;;6182329;23;20445;-94